Time;durP1;ratioP1;P1;durP2;ratioP2;P2;SDS_P1;SDS_P2;PMS_P1;PMS_P2;Temp;Humidity;BMP_temperature;BMP_pressure;BME280_temperature;BME280_humidity;BME280_pressure;Samples;Min_cycle;Max_cycle;Signal;HPM_P1;HPM_P2
2021/08/20 00:00:41;;;;;;;11.25;6.92;;;;;;;17.72;59.35;100228.52;1767898;79;21140;-66
2021/08/20 00:03:09;;;;;;;13.05;7.35;;;;;;;17.75;58.90;100231.33;1766753;80;21047;-65
2021/08/20 00:05:36;;;;;;;10.18;6.65;;;;;;;17.76;58.67;100229.00;1748148;80;21069;-64
2021/08/20 00:08:04;;;;;;;13.72;7.03;;;;;;;17.75;58.65;100229.52;1765764;79;21031;-66
2021/08/20 00:10:30;;;;;;;8.43;6.22;;;;;;;17.71;58.70;100231.36;1761793;79;21607;-65
2021/08/20 00:12:57;;;;;;;9.95;5.85;;;;;;;17.68;58.71;100231.19;1759933;79;21133;-65
2021/08/20 00:15:23;;;;;;;11.25;6.28;;;;;;;17.64;58.83;100234.70;1757800;79;21493;-65
2021/08/20 00:17:51;;;;;;;10.85;6.53;;;;;;;17.62;58.97;100228.73;1766244;79;21019;-65
2021/08/20 00:20:20;;;;;;;12.13;6.85;;;;;;;17.67;59.10;100234.87;1772128;79;21027;-65
2021/08/20 00:22:48;;;;;;;10.90;6.92;;;;;;;17.70;59.06;100231.87;1764453;79;21598;-65
2021/08/20 00:25:15;;;;;;;11.18;6.28;;;;;;;17.72;58.83;100236.98;1744390;79;21110;-65
2021/08/20 00:27:43;;;;;;;10.85;7.05;;;;;;;17.69;58.62;100237.36;1765781;79;21031;-68
2021/08/20 00:30:12;;;;;;;11.35;6.78;;;;;;;17.62;58.55;100235.38;1771179;79;21021;-65
2021/08/20 00:32:38;;;;;;;10.35;6.72;;;;;;;17.58;58.52;100235.38;1730475;81;21078;-64
2021/08/20 00:35:08;;;;;;;12.60;6.53;;;;;;;17.54;58.58;100236.73;1766611;79;21659;-64
2021/08/20 00:37:35;;;;;;;9.55;5.80;;;;;;;17.52;58.70;100236.09;1723592;80;21047;-65
2021/08/20 00:40:04;;;;;;;11.38;6.25;;;;;;;17.50;58.88;100233.25;1710642;82;22302;-65
2021/08/20 00:42:31;;;;;;;9.68;5.97;;;;;;;17.49;59.01;100244.91;1736507;80;21068;-64
2021/08/20 00:44:59;;;;;;;9.43;6.35;;;;;;;17.50;58.95;100242.56;1741169;80;21053;-66
2021/08/20 00:47:26;;;;;;;11.05;6.55;;;;;;;17.53;58.95;100251.53;1736104;80;21390;-64
2021/08/20 00:49:53;;;;;;;11.38;6.70;;;;;;;17.54;59.28;100258.53;1714265;80;21067;-66
2021/08/20 00:52:20;;;;;;;10.00;6.75;;;;;;;17.56;59.38;100260.51;1737173;80;21038;-64
2021/08/20 00:54:46;;;;;;;12.35;6.83;;;;;;;17.55;59.35;100256.18;1741887;80;21020;-65
2021/08/20 00:57:16;;;;;;;11.83;6.92;;;;;;;17.54;59.27;100254.03;1741604;80;21023;-66
2021/08/20 00:59:46;;;;;;;9.95;6.20;;;;;;;17.52;58.94;100261.36;1743412;80;21023;-67
2021/08/20 01:02:15;;;;;;;11.25;6.72;;;;;;;17.54;58.70;100262.52;1712001;80;21095;-67
2021/08/20 01:04:41;;;;;;;9.75;6.45;;;;;;;17.52;58.62;100266.68;1728148;80;21059;-68
2021/08/20 01:07:09;;;;;;;8.80;5.90;;;;;;;17.48;58.71;100275.16;1734365;80;21129;-65
2021/08/20 01:09:37;;;;;;;12.73;6.87;;;;;;;17.43;59.01;100273.00;1744707;80;21569;-65
2021/08/20 01:12:05;;;;;;;10.68;6.97;;;;;;;17.41;59.40;100279.00;1721268;80;21042;-66
2021/08/20 01:14:33;;;;;;;11.73;7.50;;;;;;;17.42;59.44;100276.69;1741216;80;21296;-64
2021/08/20 01:17:07;;;;;;;9.28;6.37;;;;;;;17.41;59.56;100276.34;1715116;82;22399;-64
2021/08/20 01:19:38;;;;;;;11.20;6.85;;;;;;;17.39;59.46;100285.82;1740771;80;21071;-64
2021/08/20 01:22:06;;;;;;;12.95;6.35;;;;;;;17.33;59.50;100286.99;1719996;80;21090;-64
2021/08/20 01:24:34;;;;;;;13.43;6.40;;;;;;;17.24;59.45;100291.00;1719662;80;21086;-64
2021/08/20 01:27:02;;;;;;;10.18;6.62;;;;;;;17.15;59.50;100292.53;1712091;80;21110;-66
2021/08/20 01:29:30;;;;;;;10.90;7.00;;;;;;;17.06;59.65;100291.68;1742567;80;21007;-65
2021/08/20 01:31:58;;;;;;;13.70;7.20;;;;;;;16.95;59.95;100290.20;1747781;80;21042;-65
2021/08/20 01:34:25;;;;;;;10.25;6.58;;;;;;;16.88;60.22;100301.17;1675754;82;21543;-65
2021/08/20 01:36:54;;;;;;;15.90;7.62;;;;;;;16.85;60.38;100303.66;1681790;83;22251;-64
2021/08/20 01:39:21;;;;;;;10.95;6.90;;;;;;;16.88;60.39;100298.02;1647909;84;21132;-64
2021/08/20 01:41:48;;;;;;;9.58;6.85;;;;;;;16.90;60.33;100292.53;1634565;85;22218;-64
2021/08/20 01:44:15;;;;;;;10.00;6.10;;;;;;;16.88;60.40;100298.52;1714057;82;21031;-66
2021/08/20 01:46:45;;;;;;;12.05;6.67;;;;;;;16.83;60.36;100297.65;1735853;80;21679;-66
2021/08/20 01:49:12;;;;;;;10.18;6.53;;;;;;;16.78;60.33;100306.61;1731772;81;21514;-65
2021/08/20 01:51:40;;;;;;;9.05;5.90;;;;;;;16.75;60.50;100314.09;1716051;82;21085;-66
2021/08/20 01:54:07;;;;;;;11.30;6.83;;;;;;;16.71;60.62;100305.63;1710190;82;21019;-65
2021/08/20 01:56:34;;;;;;;12.45;5.83;;;;;;;16.69;60.68;100309.77;1738487;80;21095;-66
2021/08/20 01:59:04;;;;;;;11.40;6.65;;;;;;;16.67;60.59;100302.95;1718407;80;21139;-65
2021/08/20 02:01:33;;;;;;;10.00;6.20;;;;;;;16.66;60.62;100307.91;1740887;80;21055;-64
2021/08/20 02:04:01;;;;;;;10.93;6.58;;;;;;;16.65;60.67;100311.58;1742703;80;21144;-65
2021/08/20 02:06:32;;;;;;;9.98;6.25;;;;;;;16.62;60.75;100314.05;1743456;80;21094;-65
2021/08/20 02:09:00;;;;;;;9.23;6.30;;;;;;;16.64;60.76;100308.58;1737479;80;21099;-65
2021/08/20 02:11:27;;;;;;;9.53;6.45;;;;;;;16.70;60.67;100314.07;1715837;81;21511;-65
2021/08/20 02:13:57;;;;;;;10.23;6.40;;;;;;;16.77;60.61;100306.27;1739696;80;21091;-68
2021/08/20 02:16:25;;;;;;;10.60;6.10;;;;;;;16.83;60.50;100309.61;1714052;82;21010;-64
2021/08/20 02:18:53;;;;;;;11.30;6.45;;;;;;;16.88;60.45;100307.31;1740747;80;21066;-65
2021/08/20 02:21:21;;;;;;;9.73;6.90;;;;;;;16.92;60.38;100314.45;1742221;80;21386;-66
2021/08/20 02:23:50;;;;;;;9.83;6.03;;;;;;;16.97;60.31;100320.61;1741587;80;21550;-65
2021/08/20 02:26:18;;;;;;;10.93;5.37;;;;;;;17.01;60.19;100315.27;1738213;80;21030;-68
2021/08/20 02:28:45;;;;;;;12.35;6.87;;;;;;;17.00;60.08;100314.97;1739635;80;21996;-67
2021/08/20 02:31:12;;;;;;;10.53;6.30;;;;;;;17.00;59.97;100317.63;1742676;80;21044;-66
2021/08/20 02:33:43;;;;;;;12.82;6.05;;;;;;;16.99;59.93;100320.75;1742737;80;21032;-67
2021/08/20 02:36:07;;;;;;;8.90;5.67;;;;;;;16.98;59.98;100313.80;1711150;82;21043;-64
2021/08/20 02:38:36;;;;;;;10.28;6.00;;;;;;;17.01;59.88;100316.61;1759648;79;21099;-65
2021/08/20 02:41:02;;;;;;;13.65;6.62;;;;;;;17.01;59.84;100316.61;1764055;79;21147;-66
2021/08/20 02:43:29;;;;;;;9.83;6.83;;;;;;;17.00;59.85;100319.77;1735036;79;21029;-68
2021/08/20 02:45:56;;;;;;;11.88;5.85;;;;;;;17.01;59.80;100317.45;1768734;79;21025;-65
2021/08/20 02:48:24;;;;;;;8.85;5.03;;;;;;;17.09;59.72;100320.08;1769090;79;21049;-66
2021/08/20 02:50:52;;;;;;;8.43;5.87;;;;;;;17.13;59.70;100321.94;1765845;79;20999;-66
2021/08/20 02:53:19;;;;;;;9.48;5.58;;;;;;;17.12;59.66;100321.59;1757567;79;22123;-64
2021/08/20 02:55:46;;;;;;;9.75;5.72;;;;;;;17.08;59.67;100322.43;1765875;79;21571;-65
2021/08/20 02:58:13;;;;;;;9.58;5.87;;;;;;;17.04;59.70;100326.41;1763689;79;21084;-65
2021/08/20 03:00:41;;;;;;;9.13;5.75;;;;;;;17.07;59.51;100326.08;1730869;80;21082;-66
2021/08/20 03:03:08;;;;;;;9.55;5.97;;;;;;;17.09;59.47;100325.91;1741086;80;21037;-67
2021/08/20 03:05:35;;;;;;;9.08;5.65;;;;;;;17.07;59.41;100323.92;1761697;79;21134;-66
2021/08/20 03:08:05;;;;;;;8.80;5.47;;;;;;;17.06;59.23;100322.25;1759620;79;21061;-65
2021/08/20 03:10:33;;;;;;;10.23;4.72;;;;;;;17.04;59.10;100326.91;1765019;79;21049;-64
2021/08/20 03:13:00;;;;;;;14.07;6.80;;;;;;;17.00;59.13;100333.57;1762475;79;21124;-64
2021/08/20 03:15:27;;;;;;;11.83;5.87;;;;;;;16.96;59.10;100335.70;1760393;79;21084;-69
2021/08/20 03:17:55;;;;;;;10.50;6.17;;;;;;;16.92;59.23;100335.72;1761989;79;21134;-68
2021/08/20 03:20:23;;;;;;;11.48;5.40;;;;;;;16.90;59.21;100337.71;1761465;79;21073;-71
2021/08/20 03:22:50;;;;;;;8.78;5.53;;;;;;;16.88;59.17;100327.24;1735128;79;21041;-71
2021/08/20 03:25:17;;;;;;;8.85;5.35;;;;;;;16.92;59.14;100337.55;1762682;79;21044;-70
2021/08/20 03:27:44;;;;;;;7.90;5.20;;;;;;;17.00;58.95;100337.05;1735508;80;21092;-71
2021/08/20 03:30:29;;;;;;;10.53;6.20;;;;;;;17.06;58.84;100338.20;1761400;79;21128;-66
2021/08/20 03:32:59;;;;;;;7.83;5.35;;;;;;;17.09;58.93;100337.88;1763937;79;21077;-67
2021/08/20 03:35:25;;;;;;;8.88;6.00;;;;;;;17.13;59.00;100337.03;1738009;80;21049;-69
2021/08/20 03:37:54;;;;;;;10.05;7.42;;;;;;;17.16;58.88;100334.88;1767430;79;21097;-66
2021/08/20 03:40:24;;;;;;;11.08;6.70;;;;;;;17.19;58.75;100337.20;1742473;79;21040;-65
2021/08/20 03:42:53;;;;;;;10.08;6.65;;;;;;;17.21;58.69;100333.05;1744619;79;21099;-66
2021/08/20 03:45:28;;;;;;;9.83;5.42;;;;;;;17.21;58.62;100334.38;1728885;79;21025;-68
2021/08/20 03:47:54;;;;;;;15.85;10.25;;;;;;;17.22;58.47;100340.04;1740731;79;21149;-66
2021/08/20 03:50:21;;;;;;;21.07;13.13;;;;;;;17.22;58.64;100330.73;1771596;79;21050;-64
2021/08/20 03:52:49;;;;;;;8.95;6.37;;;;;;;17.24;58.71;100336.20;1747214;79;21050;-65
2021/08/20 03:55:16;;;;;;;8.20;5.20;;;;;;;17.24;58.62;100328.22;1772329;79;21131;-67
2021/08/20 03:57:49;;;;;;;9.25;6.05;;;;;;;17.24;58.74;100337.53;1764323;79;21567;-67
2021/08/20 04:00:16;;;;;;;7.95;5.03;;;;;;;17.27;58.64;100346.51;1773478;79;21084;-66
2021/08/20 04:02:45;;;;;;;8.60;5.45;;;;;;;17.38;58.58;100349.81;1683054;83;21121;-66
2021/08/20 04:05:12;;;;;;;8.75;5.05;;;;;;;17.44;58.32;100349.97;1770938;79;21041;-66
2021/08/20 04:07:49;;;;;;;13.53;5.15;;;;;;;17.50;58.20;100353.81;1772746;79;21206;-69
2021/08/20 04:10:26;;;;;;;8.83;5.15;;;;;;;17.52;58.32;100356.30;1765771;79;21113;-66
2021/08/20 04:12:55;;;;;;;8.20;4.45;;;;;;;17.52;58.44;100350.98;1763459;79;21017;-67
2021/08/20 04:15:25;;;;;;;7.90;5.00;;;;;;;17.54;58.26;100350.31;1771030;79;21468;-65
2021/08/20 04:17:52;;;;;;;7.58;4.65;;;;;;;17.59;57.82;100347.97;1766800;79;21069;-66
2021/08/20 04:20:19;;;;;;;6.58;4.22;;;;;;;17.65;57.70;100347.27;1774569;79;22940;-67
2021/08/20 04:22:48;;;;;;;9.08;5.20;;;;;;;17.71;57.49;100347.11;1774710;79;21078;-68
2021/08/20 04:25:14;;;;;;;8.75;4.65;;;;;;;17.76;57.55;100341.59;1772343;79;21496;-69
2021/08/20 04:28:00;;;;;;;7.63;4.53;;;;;;;17.81;57.11;100344.57;1736956;79;22202;-69
2021/08/20 04:30:45;;;;;;;7.67;5.03;;;;;;;17.90;57.28;100345.91;1764160;79;21084;-71
2021/08/20 04:33:15;;;;;;;6.47;4.30;;;;;;;17.94;56.94;100346.73;1726648;80;21041;-68
2021/08/20 04:36:01;;;;;;;6.75;4.05;;;;;;;17.98;56.98;100345.37;1769704;79;21096;-67
2021/08/20 04:38:29;;;;;;;10.35;4.70;;;;;;;18.03;57.36;100342.20;1742057;80;21027;-66
2021/08/20 04:41:01;;;;;;;8.18;4.60;;;;;;;18.09;57.30;100346.84;1770159;78;21085;-71
2021/08/20 04:43:36;;;;;;;8.30;4.57;;;;;;;18.24;57.03;100342.11;1778833;78;21021;-68
2021/08/20 04:46:22;;;;;;;7.80;4.53;;;;;;;18.34;56.76;100338.72;1778972;78;21145;-66
2021/08/20 04:49:08;;;;;;;7.67;4.33;;;;;;;18.42;56.72;100339.20;1777945;78;22556;-70
2021/08/20 04:51:48;;;;;;;8.50;4.35;;;;;;;18.50;56.49;100341.81;1775640;78;21088;-69
2021/08/20 04:54:19;;;;;;;8.28;4.33;;;;;;;18.54;56.05;100339.97;1778698;78;21467;-67
2021/08/20 04:56:55;;;;;;;8.73;4.45;;;;;;;18.57;56.31;100337.43;1775148;80;21523;-68
2021/08/20 04:59:23;;;;;;;7.10;4.42;;;;;;;18.60;56.15;100345.59;1774277;79;21129;-68
2021/08/20 05:01:49;;;;;;;7.55;4.08;;;;;;;18.62;56.56;100338.24;1775192;78;21034;-68
2021/08/20 05:04:17;;;;;;;9.00;4.80;;;;;;;18.65;56.60;100342.72;1751924;80;21058;-67
2021/08/20 05:06:44;;;;;;;9.40;4.20;;;;;;;18.68;56.47;100342.37;1773652;79;20971;-70
2021/08/20 05:09:12;;;;;;;8.35;4.45;;;;;;;18.73;56.65;100349.33;1772041;78;20971;-67
2021/08/20 05:11:39;;;;;;;13.55;4.80;;;;;;;18.78;56.83;100347.95;1778780;78;21671;-67
2021/08/20 05:14:05;;;;;;;9.15;4.50;;;;;;;18.83;57.01;100345.61;1773576;78;21029;-67
2021/08/20 05:16:33;;;;;;;6.85;4.22;;;;;;;18.88;56.90;100340.09;1775365;78;21056;-67
2021/08/20 05:19:00;;;;;;;8.75;4.28;;;;;;;19.00;57.03;100339.16;1778976;78;20999;-66
2021/08/20 05:21:27;;;;;;;8.63;4.62;;;;;;;19.11;56.75;100340.08;1776011;78;21076;-70
2021/08/20 05:23:54;;;;;;;10.43;4.10;;;;;;;19.19;57.19;100331.67;1774807;78;21130;-67
2021/08/20 05:26:21;;;;;;;8.28;4.85;;;;;;;19.26;57.27;100328.60;1778420;79;21102;-67
2021/08/20 05:28:47;;;;;;;7.22;4.00;;;;;;;19.31;57.60;100335.04;1782888;79;21074;-66
2021/08/20 05:31:13;;;;;;;7.03;3.92;;;;;;;19.37;57.70;100330.02;1714436;80;21061;-66
2021/08/20 05:33:40;;;;;;;7.50;4.08;;;;;;;19.41;57.93;100339.30;1775583;78;21561;-68
2021/08/20 05:36:06;;;;;;;8.73;4.12;;;;;;;19.45;58.16;100344.11;1778765;78;21060;-70
2021/08/20 05:38:33;;;;;;;7.72;3.67;;;;;;;19.53;58.37;100343.69;1768376;78;21701;-69
2021/08/20 05:41:00;;;;;;;7.00;3.90;;;;;;;19.65;58.08;100340.40;1741641;79;21128;-68
2021/08/20 05:43:27;;;;;;;7.40;4.97;;;;;;;19.74;58.23;100337.64;1765580;79;21502;-71
2021/08/20 05:45:53;;;;;;;6.85;4.03;;;;;;;19.79;58.16;100329.42;1747947;80;21047;-68
2021/08/20 05:48:20;;;;;;;7.08;3.85;;;;;;;19.86;58.49;100328.18;1767369;79;21130;-68
2021/08/20 05:50:46;;;;;;;12.58;4.10;;;;;;;19.92;58.13;100328.78;1764055;79;21490;-67
2021/08/20 05:53:12;;;;;;;7.00;3.58;;;;;;;19.97;58.15;100330.39;1744370;80;21087;-68
2021/08/20 05:55:39;;;;;;;6.30;3.87;;;;;;;20.06;58.16;100332.45;1766285;79;21035;-67
2021/08/20 05:58:07;;;;;;;7.30;4.15;;;;;;;20.18;57.62;100334.95;1739235;79;21322;-70
2021/08/20 06:00:34;;;;;;;7.67;3.95;;;;;;;20.26;57.07;100337.19;1769965;79;21055;-67
2021/08/20 06:03:03;;;;;;;7.30;3.87;;;;;;;20.29;56.92;100331.47;1764822;79;21088;-69
2021/08/20 06:05:29;;;;;;;8.75;4.62;;;;;;;20.30;57.24;100330.47;1740235;80;22097;-66
2021/08/20 06:07:56;;;;;;;7.15;4.78;;;;;;;20.32;57.64;100329.25;1761413;79;21042;-66
2021/08/20 06:10:22;;;;;;;7.72;4.10;;;;;;;20.36;57.54;100330.55;1758916;79;21050;-67
2021/08/20 06:12:49;;;;;;;7.05;3.72;;;;;;;20.43;57.28;100331.95;1763839;79;21395;-65
2021/08/20 06:15:15;;;;;;;7.83;4.15;;;;;;;20.54;57.11;100333.30;1763472;79;22085;-68
2021/08/20 06:17:43;;;;;;;10.38;4.12;;;;;;;20.58;56.59;100336.74;1762273;79;21035;-66
2021/08/20 06:20:12;;;;;;;6.37;4.25;;;;;;;20.62;57.13;100329.16;1765588;79;21057;-67
2021/08/20 06:22:41;;;;;;;6.42;3.83;;;;;;;20.67;57.05;100331.31;1763278;79;21529;-66
2021/08/20 06:25:10;;;;;;;6.90;3.83;;;;;;;20.72;56.67;100330.22;1762252;79;23306;-65
2021/08/20 06:27:36;;;;;;;6.92;4.22;;;;;;;20.75;56.53;100331.19;1765660;79;21049;-68
2021/08/20 06:30:04;;;;;;;7.90;4.40;;;;;;;20.80;57.38;100331.95;1698554;82;22038;-68
2021/08/20 06:32:30;;;;;;;6.53;4.03;;;;;;;20.86;56.95;100331.98;1771421;79;21397;-70
2021/08/20 06:34:58;;;;;;;6.83;4.00;;;;;;;20.95;56.52;100327.36;1756103;79;21037;-69
2021/08/20 06:37:25;;;;;;;8.33;3.87;;;;;;;21.03;56.32;100328.56;1765193;79;21265;-68
2021/08/20 06:39:51;;;;;;;7.03;3.98;;;;;;;21.11;55.70;100326.25;1760941;79;21121;-69
2021/08/20 06:53:43;;;;;;;10.40;3.92;;;;;;;22.71;52.52;100310.16;1789713;78;23333;-63
2021/08/20 06:56:10;;;;;;;10.13;3.75;;;;;;;22.82;52.20;100316.27;1700161;82;21087;-58
2021/08/20 06:58:36;;;;;;;7.90;3.92;;;;;;;22.79;52.11;100318.83;1715075;81;21262;-57
2021/08/20 07:01:03;;;;;;;7.58;3.58;;;;;;;22.74;52.54;100316.47;1718171;81;21169;-57
2021/08/20 07:03:29;;;;;;;5.47;3.50;;;;;;;22.67;53.04;100315.64;1705066;82;21137;-65
2021/08/20 07:05:56;;;;;;;6.03;3.52;;;;;;;22.62;53.36;100313.03;1703369;82;21053;-64
2021/08/20 07:08:22;;;;;;;10.15;5.55;;;;;;;22.62;52.80;100314.90;1704199;82;21134;-63
2021/08/20 07:10:50;;;;;;;7.37;3.80;;;;;;;22.64;52.61;100312.83;1703188;82;21052;-63
2021/08/20 07:13:16;;;;;;;6.90;4.50;;;;;;;22.61;52.78;100315.91;1700742;82;21014;-63
2021/08/20 07:15:43;;;;;;;6.08;3.87;;;;;;;22.57;53.06;100318.19;1702585;82;21684;-63
2021/08/20 07:18:11;;;;;;;7.87;3.87;;;;;;;22.53;53.66;100322.31;1706135;82;21578;-63
2021/08/20 07:20:37;;;;;;;7.30;4.28;;;;;;;22.53;53.78;100320.16;1704562;82;21081;-65
2021/08/20 07:23:03;;;;;;;7.47;4.22;;;;;;;22.54;53.80;100323.95;1693585;81;21056;-64
2021/08/20 07:25:30;;;;;;;6.33;4.03;;;;;;;22.57;53.55;100324.07;1721406;81;21060;-63
2021/08/20 07:27:57;;;;;;;7.83;3.70;;;;;;;22.59;53.62;100322.85;1700948;82;21544;-65
2021/08/20 07:30:23;;;;;;;5.80;3.47;;;;;;;22.63;53.43;100321.41;1733113;81;21101;-62
2021/08/20 07:32:50;;;;;;;8.28;3.70;;;;;;;22.63;53.14;100318.72;1704325;82;21699;-64
2021/08/20 07:35:16;;;;;;;7.20;4.40;;;;;;;22.66;53.19;100317.47;1704866;82;21205;-64
2021/08/20 07:37:43;;;;;;;7.78;3.67;;;;;;;22.69;53.24;100320.27;1704525;82;21090;-63
2021/08/20 07:40:10;;;;;;;6.47;3.95;;;;;;;22.71;53.38;100317.72;1699774;82;21116;-62
2021/08/20 07:42:36;;;;;;;6.85;4.10;;;;;;;22.75;52.58;100317.60;1733022;81;21086;-63
2021/08/20 07:45:06;;;;;;;6.28;4.20;;;;;;;22.77;52.42;100318.74;1735239;81;21125;-62
2021/08/20 07:47:46;;;;;;;8.88;4.30;;;;;;;22.76;52.68;100315.24;1720990;81;21101;-63
2021/08/20 07:50:14;;;;;;;5.87;3.22;;;;;;;22.80;53.22;100311.63;1720265;81;21129;-64
2021/08/20 07:52:44;;;;;;;6.60;3.37;;;;;;;22.88;52.74;100311.44;1716892;81;21684;-66
2021/08/20 07:55:12;;;;;;;7.37;3.75;;;;;;;22.95;52.71;100316.28;1702895;82;21499;-64
2021/08/20 07:57:47;;;;;;;8.40;3.77;;;;;;;23.03;53.00;100320.59;1697253;82;21133;-66
2021/08/20 08:00:14;;;;;;;5.08;2.75;;;;;;;23.11;51.20;100316.92;1718273;81;21155;-61
2021/08/20 08:02:41;;;;;;;7.17;3.83;;;;;;;23.15;50.67;100316.31;1720947;81;21374;-63
2021/08/20 08:05:08;;;;;;;6.28;3.20;;;;;;;23.18;50.63;100314.56;1669778;83;21042;-60
2021/08/20 08:07:34;;;;;;;6.62;3.83;;;;;;;23.25;50.84;100321.77;1722802;81;21120;-61
2021/08/20 08:10:01;;;;;;;8.13;4.17;;;;;;;23.27;49.17;100303.61;1706669;82;21069;-64
2021/08/20 08:12:29;;;;;;;9.63;3.08;;;;;;;23.30;50.42;100301.83;1702463;82;21218;-60
2021/08/20 08:14:56;;;;;;;6.65;2.90;;;;;;;23.34;50.00;100297.70;1705719;82;21775;-62
2021/08/20 08:17:23;;;;;;;6.25;3.12;;;;;;;23.37;49.92;100304.83;1681640;82;21070;-63
2021/08/20 08:19:49;;;;;;;5.70;2.70;;;;;;;23.38;49.47;100298.92;1705061;82;21620;-63
2021/08/20 08:22:16;;;;;;;6.62;3.10;;;;;;;23.40;48.45;100298.72;1680635;82;21121;-60
2021/08/20 08:24:45;;;;;;;8.23;2.95;;;;;;;23.42;49.13;100293.47;1702686;82;21147;-57
2021/08/20 08:27:11;;;;;;;5.97;3.10;;;;;;;23.46;49.14;100301.92;1697437;82;21067;-57
2021/08/20 08:29:37;;;;;;;6.95;3.22;;;;;;;23.50;49.62;100299.11;1714709;81;21450;-61
2021/08/20 08:32:05;;;;;;;6.35;2.77;;;;;;;23.53;49.08;100302.20;1718315;81;21126;-63
2021/08/20 08:34:31;;;;;;;5.53;3.12;;;;;;;23.60;48.33;100306.20;1697852;82;21670;-63
2021/08/20 08:36:57;;;;;;;5.62;3.02;;;;;;;23.65;47.93;100302.90;1700024;82;21123;-60
2021/08/20 08:39:24;;;;;;;5.33;2.62;;;;;;;23.69;48.00;100297.43;1674915;82;21157;-61
2021/08/20 08:41:50;;;;;;;6.62;3.15;;;;;;;23.74;48.02;100305.15;1710834;82;21089;-61
2021/08/20 08:44:16;;;;;;;6.95;3.75;;;;;;;23.81;47.16;100303.78;1681317;82;21668;-60
2021/08/20 08:46:43;;;;;;;5.97;3.52;;;;;;;23.83;47.08;100305.77;1702911;82;21108;-61
2021/08/20 08:49:11;;;;;;;5.30;2.77;;;;;;;23.84;47.60;100306.08;1689522;81;22104;-61
2021/08/20 08:51:38;;;;;;;7.22;2.52;;;;;;;23.88;47.46;100307.83;1660917;82;21032;-57
2021/08/20 08:54:04;;;;;;;5.87;2.58;;;;;;;23.95;47.20;100279.58;1729170;81;21074;-58
2021/08/20 08:56:31;;;;;;;4.85;2.47;;;;;;;24.03;47.04;100295.47;1702009;82;21727;-56
2021/08/20 08:58:57;;;;;;;5.75;2.40;;;;;;;24.08;46.53;100298.34;1703605;81;21086;-58
2021/08/20 09:01:30;;;;;;;6.22;2.33;;;;;;;24.12;46.55;100303.58;1726850;81;21078;-57
2021/08/20 09:04:11;;;;;;;5.47;2.50;;;;;;;24.18;45.75;100292.51;1732161;81;21113;-59
2021/08/20 09:06:44;;;;;;;6.72;2.47;;;;;;;24.21;46.16;100297.42;1733621;81;21133;-57
2021/08/20 09:09:14;;;;;;;6.65;2.62;;;;;;;24.23;45.95;100297.53;1699329;82;21040;-56
2021/08/20 09:11:41;;;;;;;6.83;2.85;;;;;;;24.28;46.55;100298.23;1713704;81;21126;-56
2021/08/20 09:14:09;;;;;;;5.37;2.50;;;;;;;24.35;45.07;100302.23;1687165;81;21130;-57
2021/08/20 09:16:44;;;;;;;7.15;2.62;;;;;;;24.36;44.20;100289.92;1718367;81;21131;-58
2021/08/20 09:19:20;;;;;;;7.75;2.67;;;;;;;24.37;45.06;100289.39;1715134;81;21051;-57
2021/08/20 09:21:53;;;;;;;6.00;2.45;;;;;;;24.32;44.76;100302.13;1716460;81;21003;-57
2021/08/20 09:24:31;;;;;;;5.60;2.15;;;;;;;24.32;43.57;100297.28;1705741;82;21069;-57
2021/08/20 09:27:21;;;;;;;5.90;2.60;;;;;;;24.33;44.11;100297.60;1698624;82;21293;-56
2021/08/20 09:30:07;;;;;;;5.40;2.30;;;;;;;24.35;44.99;100290.95;1674531;82;21566;-57
2021/08/20 09:32:52;;;;;;;6.40;2.92;;;;;;;24.41;44.66;100291.94;1705537;82;21102;-57
2021/08/20 09:35:20;;;;;;;6.22;2.22;;;;;;;24.48;43.48;100291.40;1706045;82;21123;-58
2021/08/20 09:37:48;;;;;;;7.95;1.95;;;;;;;24.57;42.60;100299.53;1705716;82;21094;-57
2021/08/20 09:40:17;;;;;;;4.95;2.50;;;;;;;24.60;42.54;100294.25;1703694;82;21091;-58
2021/08/20 09:42:44;;;;;;;5.70;2.52;;;;;;;24.60;42.51;100293.72;1706624;82;21059;-58
2021/08/20 09:45:21;;;;;;;5.85;2.55;;;;;;;24.61;42.67;100299.41;1708809;82;21382;-57
2021/08/20 09:47:52;;;;;;;5.50;2.70;;;;;;;24.62;42.23;100292.16;1706361;82;21091;-58
2021/08/20 09:50:20;;;;;;;5.85;3.00;;;;;;;24.66;42.27;100302.27;1705132;82;21728;-57
2021/08/20 09:52:48;;;;;;;6.55;2.92;;;;;;;24.67;42.60;100295.02;1697627;82;21141;-58
2021/08/20 09:55:36;;;;;;;5.97;2.87;;;;;;;24.70;42.42;100292.42;1680256;82;21063;-58
2021/08/20 09:58:02;;;;;;;5.00;2.45;;;;;;;24.74;43.02;100300.35;1701173;82;21072;-58
2021/08/20 10:00:30;;;;;;;5.78;2.27;;;;;;;24.73;42.06;100292.81;1699450;82;21121;-59
2021/08/20 10:02:56;;;;;;;5.05;2.37;;;;;;;24.74;41.98;100296.31;1707430;82;21088;-59
2021/08/20 10:05:23;;;;;;;5.35;2.85;;;;;;;24.75;41.72;100294.75;1699634;82;21864;-59
2021/08/20 10:07:49;;;;;;;5.62;2.80;;;;;;;24.79;42.01;100295.14;1651364;82;21102;-58
2021/08/20 10:10:16;;;;;;;4.70;2.10;;;;;;;24.80;42.29;100287.38;1671404;82;21089;-58
2021/08/20 10:12:42;;;;;;;4.97;2.30;;;;;;;24.85;42.52;100291.58;1688214;82;21018;-58
2021/08/20 10:15:10;;;;;;;5.72;2.52;;;;;;;24.89;42.23;100288.73;1697882;82;21100;-58
2021/08/20 10:17:37;;;;;;;4.53;2.35;;;;;;;24.90;40.49;100284.17;1704020;82;21015;-58
2021/08/20 10:20:05;;;;;;;7.25;2.60;;;;;;;24.92;41.89;100286.14;1703788;82;21078;-58
2021/08/20 10:22:31;;;;;;;5.47;2.15;;;;;;;24.91;41.63;100279.92;1699839;82;21117;-58
2021/08/20 10:24:59;;;;;;;5.33;1.87;;;;;;;24.93;42.04;100281.05;1695290;82;21556;-59
2021/08/20 10:27:26;;;;;;;4.28;1.80;;;;;;;24.95;40.48;100275.76;1677930;82;21128;-59
2021/08/20 10:29:52;;;;;;;4.33;1.70;;;;;;;24.99;40.79;100276.95;1705037;82;21414;-59
2021/08/20 10:32:19;;;;;;;4.08;1.87;;;;;;;24.97;39.67;100281.73;1700037;82;21174;-58
2021/08/20 10:34:45;;;;;;;4.80;2.15;;;;;;;24.97;40.22;100279.05;1704047;82;21070;-58
2021/08/20 10:37:19;;;;;;;6.20;2.00;;;;;;;25.01;40.06;100280.23;1698026;82;21116;-60
2021/08/20 10:39:48;;;;;;;4.00;1.87;;;;;;;25.02;39.65;100271.13;1702736;82;21071;-59
2021/08/20 10:42:36;;;;;;;3.67;1.72;;;;;;;24.99;40.02;100272.91;1676294;82;21216;-59
2021/08/20 10:45:11;;;;;;;4.05;1.70;;;;;;;25.03;41.31;100268.75;1695389;82;21045;-58
2021/08/20 10:47:40;;;;;;;5.17;1.80;;;;;;;25.07;40.02;100272.36;1675836;82;21116;-60
2021/08/20 10:50:11;;;;;;;5.45;2.20;;;;;;;25.11;40.17;100277.58;1692796;82;21164;-59
2021/08/20 10:52:51;;;;;;;5.53;1.80;;;;;;;25.17;39.97;100282.09;1700372;82;21117;-58
2021/08/20 10:55:29;;;;;;;4.55;2.02;;;;;;;25.20;38.94;100282.97;1675408;82;21129;-59
2021/08/20 10:58:03;;;;;;;4.25;1.80;;;;;;;25.20;38.35;100275.73;1687593;82;21188;-59
2021/08/20 11:00:38;;;;;;;5.17;1.47;;;;;;;25.19;38.28;100267.87;1703059;82;21042;-59
2021/08/20 11:03:08;;;;;;;4.03;1.62;;;;;;;25.19;38.93;100284.84;1678395;82;21093;-58
2021/08/20 11:05:44;;;;;;;4.37;1.92;;;;;;;25.19;38.86;100278.12;1702016;82;21632;-57
2021/08/20 11:08:32;;;;;;;5.33;1.82;;;;;;;25.23;39.49;100282.53;1728915;81;21174;-59
2021/08/20 11:11:01;;;;;;;4.78;2.08;;;;;;;25.29;38.84;100272.26;1726284;81;21086;-58
2021/08/20 11:13:29;;;;;;;4.62;1.95;;;;;;;25.29;38.24;100283.56;1725920;81;21500;-58
2021/08/20 11:15:58;;;;;;;3.87;1.50;;;;;;;25.28;38.24;100281.91;1721578;81;21142;-57
2021/08/20 11:18:45;;;;;;;5.70;1.70;;;;;;;25.31;37.81;100276.89;1673705;83;21620;-58
2021/08/20 11:21:42;;;;;;;3.50;1.35;;;;;;;25.36;38.50;100267.62;1723803;81;21797;-58
2021/08/20 11:24:17;;;;;;;3.37;1.37;;;;;;;25.45;36.51;100274.06;1719322;81;21107;-57
2021/08/20 11:26:44;;;;;;;3.55;1.47;;;;;;;25.50;36.85;100272.36;1728002;81;21019;-58
2021/08/20 11:29:13;;;;;;;4.62;2.10;;;;;;;25.59;36.97;100270.19;1731819;81;21047;-58
2021/08/20 11:31:42;;;;;;;3.95;1.77;;;;;;;25.66;37.97;100274.16;1722556;81;22208;-58
2021/08/20 11:34:08;;;;;;;3.50;1.62;;;;;;;25.68;36.55;100267.47;1733589;81;21170;-58
2021/08/20 11:36:42;;;;;;;3.52;1.40;;;;;;;25.68;36.72;100266.66;1703964;81;21055;-58
2021/08/20 11:39:05;;;;;;;3.25;1.20;;;;;;;25.66;36.35;100262.03;1702579;81;21054;-59
2021/08/20 11:41:43;;;;;;;7.12;1.62;;;;;;;25.69;36.88;100274.52;1704955;81;21078;-60
2021/08/20 11:44:12;;;;;;;2.47;1.07;;;;;;;25.73;35.84;100256.84;1728837;81;22260;-59